createdAt,value
2019-03-21T00:01:58.578Z,48.92
2019-03-21T00:07:06.601Z,29.87
2019-03-21T00:12:14.605Z,30.02
2019-03-21T00:17:28.076Z,32.33
2019-03-21T00:22:36.266Z,35.15
2019-03-21T00:27:44.145Z,37.20
2019-03-21T00:32:52.615Z,32.50
2019-03-21T00:38:02.439Z,32.58
2019-03-21T00:43:13.246Z,35.20
2019-03-21T00:48:23.279Z,35.95
2019-03-21T00:53:31.619Z,34.00
2019-03-21T00:58:39.438Z,39.70
2019-03-21T01:10:36.934Z,37.00
2019-03-21T01:15:45.106Z,36.83
2019-03-21T01:20:53.229Z,34.92
2019-03-21T01:31:09.422Z,39.55
2019-03-21T01:36:17.284Z,39.60
2019-03-21T01:41:25.254Z,46.37
2019-03-21T01:46:33.582Z,40.08
2019-03-21T01:51:42.270Z,41.68
2019-03-21T01:56:50.466Z,43.33
2019-03-21T02:01:59.575Z,44.33
2019-03-21T02:07:08.745Z,51.18
2019-03-21T02:12:17.424Z,55.00
2019-03-21T02:17:25.267Z,43.73
2019-03-21T02:22:33.263Z,48.23
2019-03-21T02:27:42.582Z,41.65
2019-03-21T02:32:53.587Z,52.58
2019-03-21T02:38:02.326Z,51.77
2019-03-21T02:48:17.250Z,47.93
2019-03-21T02:53:25.380Z,54.58
2019-03-21T02:58:33.260Z,46.23
2019-03-21T03:03:41.600Z,52.03
2019-03-21T03:08:49.615Z,49.33
2019-03-21T03:19:07.432Z,55.12
2019-03-21T03:24:17.724Z,48.45
2019-03-21T03:29:25.605Z,48.13
2019-03-21T03:34:35.460Z,53.20
2019-03-21T03:39:43.297Z,47.70
2019-03-21T03:44:51.064Z,49.75
2019-03-21T03:49:59.243Z,45.30
2019-03-21T04:00:22.601Z,40.80
2019-03-21T04:05:31.617Z,47.15
2019-03-21T04:10:45.699Z,46.37
2019-03-21T04:15:54.246Z,48.78
2019-03-21T04:21:05.624Z,41.02
2019-03-21T04:26:20.763Z,46.05
2019-03-21T04:31:29.616Z,48.17
2019-03-21T04:36:37.593Z,43.75
2019-03-21T04:41:46.696Z,44.65
2019-03-21T04:52:02.229Z,43.55
2019-03-21T04:57:10.579Z,41.90
2019-03-21T05:02:18.511Z,37.88
2019-03-21T05:07:27.101Z,37.67
2019-03-21T05:12:35.239Z,38.40
2019-03-21T05:17:43.230Z,40.40
2019-03-21T05:22:52.546Z,38.75
2019-03-21T05:28:01.248Z,39.15
2019-03-21T05:33:09.095Z,39.53
2019-03-21T05:38:17.673Z,49.23
2019-03-21T05:43:36.756Z,38.33
2019-03-21T05:48:45.424Z,41.05
2019-03-21T05:53:53.559Z,36.33
2019-03-21T05:59:01.483Z,38.67
2019-03-21T06:04:09.382Z,42.75
2019-03-21T06:09:20.584Z,45.45
2019-03-21T06:14:32.275Z,45.03
2019-03-21T06:22:54.738Z,44.08
2019-03-21T06:28:03.673Z,39.35
2019-03-21T06:33:13.246Z,41.92
2019-03-21T06:38:22.253Z,48.52
2019-03-21T06:43:30.082Z,46.50
2019-03-21T06:48:38.583Z,44.13
2019-03-21T06:53:47.430Z,50.52
2019-03-21T06:58:56.069Z,48.15
2019-03-21T07:04:07.425Z,47.25
2019-03-21T07:09:14.720Z,52.00
2019-03-21T07:14:24.057Z,44.85
2019-03-21T07:19:32.006Z,40.90
2019-03-21T07:24:40.907Z,44.67
2019-03-21T07:29:49.227Z,42.85
2019-03-21T07:34:57.603Z,41.48
2019-03-21T07:40:07.239Z,46.28
2019-03-21T07:45:17.417Z,41.53
2019-03-21T07:50:26.246Z,46.23
2019-03-21T07:55:34.590Z,40.92
2019-03-21T08:00:43.596Z,46.63
2019-03-21T08:05:51.670Z,46.20
2019-03-21T08:11:01.526Z,43.48
2019-03-21T08:16:09.562Z,43.85
2019-03-21T08:21:17.599Z,48.08
2019-03-21T08:26:25.620Z,44.58
2019-03-21T08:31:33.568Z,44.73
2019-03-21T08:36:41.646Z,47.73
2019-03-21T08:41:50.910Z,46.42
2019-03-21T08:46:58.919Z,53.90
2019-03-21T08:52:06.897Z,50.50
2019-03-21T08:57:15.316Z,48.20
2019-03-21T09:02:23.245Z,50.55
2019-03-21T09:07:31.581Z,51.40
2019-03-21T09:12:39.617Z,48.45
2019-03-21T09:22:56.437Z,52.30
2019-03-21T09:28:04.437Z,36.75
2019-03-21T09:33:12.444Z,39.73
2019-03-21T09:38:20.606Z,41.35
2019-03-21T09:43:30.416Z,35.92
2019-03-21T09:48:40.250Z,40.28
2019-03-21T09:58:54.765Z,32.20
2019-03-21T10:09:11.443Z,27.20
2019-03-21T10:14:19.463Z,29.35
2019-03-21T10:19:28.283Z,29.35
2019-03-21T10:29:42.576Z,33.20
2019-03-21T10:34:50.423Z,29.72
2019-03-21T10:39:59.580Z,26.73
2019-03-21T10:45:11.287Z,33.60
2019-03-21T10:55:36.250Z,31.77
2019-03-21T11:00:45.246Z,32.57
2019-03-21T11:05:53.228Z,31.40
2019-03-21T11:16:08.588Z,28.85
2019-03-21T11:21:16.918Z,30.40
2019-03-21T11:26:25.451Z,24.12
2019-03-21T11:31:33.580Z,28.55
2019-03-21T11:36:41.584Z,24.87
2019-03-21T11:41:50.431Z,25.20
2019-03-21T11:46:58.281Z,24.65
2019-03-21T11:52:17.515Z,24.30
2019-03-21T11:57:15.901Z,27.77
2019-03-21T12:07:34.644Z,27.42
2019-03-21T12:12:46.247Z,29.10
2019-03-21T12:21:05.462Z,26.68
2019-03-21T12:26:16.580Z,24.77
2019-03-21T12:31:35.487Z,27.05
2019-03-21T12:45:09.499Z,28.75
2019-03-21T12:50:17.923Z,17.62
2019-03-21T12:55:27.464Z,30.37
2019-03-21T13:00:45.589Z,27.62
2019-03-21T13:05:53.449Z,31.73
2019-03-21T13:11:01.271Z,17.32
2019-03-21T13:16:09.433Z,27.73
2019-03-21T13:21:17.134Z,31.87
2019-03-21T13:26:25.009Z,37.50
2019-03-21T13:31:33.251Z,35.25
2019-03-21T13:36:42.387Z,34.90
2019-03-21T13:41:51.882Z,38.30
2019-03-21T13:46:59.724Z,39.43
2019-03-21T14:02:21.243Z,40.17
2019-03-21T14:07:29.245Z,34.83
2019-03-21T14:17:44.041Z,40.40
2019-03-21T14:22:52.425Z,36.48
2019-03-21T14:28:01.379Z,42.10
2019-03-21T14:33:09.061Z,42.45
2019-03-21T14:38:25.914Z,39.60
2019-03-21T14:43:27.043Z,39.80
2019-03-21T14:48:34.891Z,46.63
2019-03-21T14:53:43.757Z,42.08
2019-03-21T15:03:58.444Z,41.25
2019-03-21T15:09:07.739Z,42.35
2019-03-21T15:14:18.571Z,45.88
2019-03-21T15:19:27.254Z,41.73
2019-03-21T15:29:41.628Z,45.50
2019-03-21T15:34:49.918Z,49.48
2019-03-21T15:45:20.689Z,52.40
2019-03-21T15:50:31.579Z,54.75
2019-03-21T15:55:39.845Z,55.20
2019-03-21T16:00:49.591Z,53.70
2019-03-21T16:05:58.246Z,50.65
2019-03-21T16:11:06.426Z,46.40
2019-03-21T16:16:14.409Z,52.43
2019-03-21T16:21:22.486Z,56.23
2019-03-21T16:26:31.117Z,48.83
2019-03-21T16:31:38.879Z,51.63
2019-03-21T16:36:47.252Z,47.60
2019-03-21T16:52:08.572Z,53.52
2019-03-21T17:02:23.412Z,53.25
2019-03-21T17:07:31.427Z,49.95
2019-03-21T17:12:40.746Z,52.23
2019-03-21T17:17:48.843Z,59.05
2019-03-21T17:22:56.693Z,61.53
2019-03-21T17:28:05.250Z,64.03
2019-03-21T17:33:13.242Z,65.45
2019-03-21T17:43:28.501Z,62.10
2019-03-21T17:53:46.232Z,60.70
2019-03-21T17:58:54.052Z,61.90
2019-03-21T18:04:02.543Z,62.93
2019-03-21T18:09:10.673Z,62.70
2019-03-21T18:14:19.448Z,67.03
2019-03-21T18:24:36.479Z,69.97
2019-03-21T18:34:29.248Z,69.58
2019-03-21T18:39:37.077Z,69.30
2019-03-21T18:44:45.073Z,70.50
2019-03-21T18:49:53.057Z,72.55
2019-03-21T19:00:11.466Z,64.10
2019-03-21T19:05:20.229Z,67.10
2019-03-21T19:10:28.248Z,70.85
2019-03-21T19:15:36.237Z,65.95
2019-03-21T19:20:44.259Z,66.15
2019-03-21T19:25:53.585Z,64.72
2019-03-21T19:31:01.578Z,63.30
2019-03-21T19:41:16.240Z,73.80
2019-03-21T19:49:21.259Z,65.05
2019-03-21T19:54:29.407Z,77.22
2019-03-21T19:59:37.571Z,68.95
2019-03-21T20:04:48.251Z,70.08
2019-03-21T20:09:56.606Z,60.55
2019-03-21T20:15:06.587Z,65.60
2019-03-21T20:20:15.322Z,66.65
2019-03-21T20:25:24.763Z,64.37
2019-03-21T20:30:33.749Z,69.54
2019-03-21T20:35:42.399Z,67.93
2019-03-21T20:40:50.255Z,71.65
2019-03-21T20:45:58.102Z,73.47
2019-03-21T20:51:06.250Z,76.15
2019-03-21T20:56:15.053Z,66.95
2019-03-21T21:01:23.252Z,69.55
2019-03-21T21:06:31.087Z,65.20
2019-03-21T21:11:39.577Z,69.55
2019-03-21T21:21:56.246Z,69.85
2019-03-21T21:27:05.023Z,68.65
2019-03-21T21:32:13.688Z,68.20
2019-03-21T21:37:22.951Z,77.97
2019-03-21T21:44:54.277Z,74.00
2019-03-21T21:50:02.301Z,76.50
2019-03-21T22:00:19.933Z,80.83
2019-03-21T22:05:27.709Z,81.85
2019-03-21T22:10:35.593Z,85.90
2019-03-21T22:15:43.576Z,90.07
2019-03-21T22:20:51.448Z,86.67
2019-03-21T22:31:05.925Z,85.70
2019-03-21T22:41:21.649Z,82.20
2019-03-21T22:46:30.252Z,83.97
2019-03-21T22:51:38.572Z,83.90
2019-03-21T22:56:46.590Z,85.42
2019-03-21T23:01:54.665Z,81.12
2019-03-21T23:07:04.505Z,79.00
2019-03-21T23:12:12.449Z,89.22
2019-03-21T23:17:20.553Z,92.25
2019-03-21T23:22:28.593Z,85.35
2019-03-21T23:28:54.260Z,86.95
2019-03-21T23:34:03.894Z,87.60
2019-03-21T23:46:07.257Z,100.47
2019-03-21T23:51:15.044Z,103.80
2019-03-21T23:56:24.448Z,98.90
